createdAt,value
2023-03-05T00:02:46.193Z,100223.44
2023-03-05T00:07:45.189Z,100235.72
2023-03-05T00:12:43.973Z,100233.75
2023-03-05T00:17:42.812Z,100234.28
2023-03-05T00:22:41.674Z,100233.69
2023-03-05T00:27:40.486Z,100229.78
2023-03-05T00:32:39.607Z,100238.63
2023-03-05T00:37:38.858Z,100220.50
2023-03-05T00:42:38.815Z,100220.44
2023-03-05T00:47:38.164Z,100211.41
2023-03-05T00:52:37.143Z,100206.28
2023-03-05T00:57:35.984Z,100192.88
2023-03-05T01:02:34.929Z,100196.00
2023-03-05T01:07:33.889Z,100185.72
2023-03-05T01:12:34.386Z,100191.59
2023-03-05T01:17:33.530Z,100177.31
2023-03-05T01:22:32.399Z,100174.50
2023-03-05T01:27:31.309Z,100173.34
2023-03-05T01:32:30.367Z,100172.09
2023-03-05T01:37:29.429Z,100159.00
2023-03-05T01:42:28.511Z,100155.97
2023-03-05T01:47:27.507Z,100151.56
2023-03-05T01:52:28.122Z,100156.28
2023-03-05T01:57:59.766Z,100162.44
2023-03-05T02:03:03.812Z,100148.13
2023-03-05T02:08:06.621Z,100155.97
2023-03-05T02:13:10.036Z,100149.75
2023-03-05T02:18:10.052Z,100146.91
2023-03-05T02:23:09.001Z,100139.53
2023-03-05T02:28:27.817Z,100128.75
2023-03-05T02:33:26.669Z,100130.84
2023-03-05T02:38:25.566Z,100122.84
2023-03-05T02:43:24.955Z,100113.44
2023-03-05T02:48:23.866Z,100117.22
2023-03-05T02:53:23.802Z,100112.84
2023-03-05T02:58:23.960Z,100112.84
2023-03-05T03:03:23.201Z,100103.25
2023-03-05T03:08:22.040Z,100110.50
2023-03-05T03:13:20.863Z,100097.72
2023-03-05T03:18:20.369Z,100107.72
2023-03-05T03:23:19.181Z,100101.84
2023-03-05T03:28:18.190Z,100103.69
2023-03-05T03:33:18.237Z,100100.38
2023-03-05T03:38:16.999Z,100102.66
2023-03-05T03:43:15.941Z,100100.56
2023-03-05T03:48:14.754Z,100095.63
2023-03-05T03:53:14.382Z,100085.72
2023-03-05T03:58:13.848Z,100078.47
2023-03-05T04:03:12.580Z,100075.53
2023-03-05T04:08:12.663Z,100065.59
2023-03-05T04:13:11.461Z,100064.94
2023-03-05T04:18:11.791Z,100063.50
2023-03-05T04:23:10.640Z,100061.63
2023-03-05T04:28:09.420Z,100058.06
2023-03-05T04:33:08.166Z,100058.50
2023-03-05T04:38:07.141Z,100059.78
2023-03-05T04:43:06.106Z,100042.66
2023-03-05T04:48:04.939Z,100045.81
2023-03-05T04:53:04.465Z,100045.16
2023-03-05T04:58:03.413Z,100046.50
2023-03-05T05:03:02.213Z,100033.53
2023-03-05T05:08:01.123Z,100044.59
2023-03-05T05:12:59.841Z,100046.50
2023-03-05T05:17:58.545Z,100040.13
2023-03-05T05:22:57.303Z,100037.41
2023-03-05T05:27:56.030Z,100028.19
2023-03-05T05:32:54.832Z,100035.47
2023-03-05T05:37:53.860Z,100023.09
2023-03-05T05:42:52.594Z,100023.31
2023-03-05T05:47:51.373Z,100023.72
2023-03-05T05:52:52.165Z,100023.97
2023-03-05T05:57:50.964Z,100024.94
2023-03-05T06:02:49.744Z,100022.50
2023-03-05T06:07:48.982Z,100033.03
2023-03-05T06:12:47.685Z,100018.44
2023-03-05T06:17:48.431Z,100006.72
2023-03-05T06:22:47.189Z,100014.59
2023-03-05T06:27:45.864Z,100015.16
2023-03-05T06:32:44.763Z,100013.66
2023-03-05T06:37:43.633Z,100009.16
2023-03-05T06:42:42.478Z,100011.31
2023-03-05T06:47:41.282Z,100006.66
2023-03-05T06:52:41.063Z,100007.00
2023-03-05T06:57:39.838Z,100011.59
2023-03-05T07:02:38.770Z,100024.31
2023-03-05T07:07:38.007Z,100016.31
2023-03-05T07:12:38.799Z,100025.59
2023-03-05T07:17:37.563Z,100023.09
2023-03-05T07:22:38.236Z,100021.31
2023-03-05T07:27:38.391Z,100019.09
2023-03-05T07:32:37.280Z,100013.13
2023-03-05T07:37:36.105Z,100007.81
2023-03-05T07:42:34.950Z,100005.13
2023-03-05T07:47:44.678Z,100015.22
2023-03-05T07:52:43.519Z,100005.66
2023-03-05T07:57:42.376Z,100006.66
2023-03-05T08:02:41.287Z,99994.81
2023-03-05T08:07:40.241Z,99999.34
2023-03-05T08:12:39.138Z,99994.53
2023-03-05T08:17:38.056Z,100000.47
2023-03-05T08:22:39.899Z,99982.41
2023-03-05T08:27:44.056Z,99980.81
2023-03-05T08:32:43.132Z,99976.94
2023-03-05T08:37:41.974Z,99975.53
2023-03-05T08:42:40.791Z,99969.56
2023-03-05T08:47:39.821Z,99963.78
2023-03-05T08:52:38.667Z,99957.06
2023-03-05T08:57:37.603Z,99950.88
2023-03-05T09:02:37.229Z,99950.28
2023-03-05T09:07:37.902Z,99958.31
2023-03-05T09:12:37.771Z,99957.66
2023-03-05T09:17:38.183Z,99946.03
2023-03-05T09:22:36.943Z,99950.88
2023-03-05T09:27:36.866Z,99944.09
2023-03-05T09:32:35.691Z,99946.09
2023-03-05T09:37:34.688Z,99944.66
2023-03-05T09:42:53.248Z,99936.75
2023-03-05T09:48:07.323Z,99933.56
2023-03-05T09:53:13.980Z,99920.66
2023-03-05T09:58:18.802Z,99923.06
2023-03-05T10:03:21.378Z,99912.00
2023-03-05T10:08:24.847Z,99912.75
2023-03-05T10:13:35.067Z,99901.19
2023-03-05T10:18:55.026Z,99897.31
2023-03-05T10:24:25.801Z,99882.44
2023-03-05T10:30:01.686Z,99877.34
2023-03-05T10:35:26.669Z,99880.69
2023-03-05T10:40:56.312Z,99864.03
2023-03-05T10:45:57.075Z,99860.91
2023-03-05T10:51:19.241Z,99850.81
2023-03-05T10:56:21.256Z,99841.53
2023-03-05T11:01:25.933Z,99844.06
2023-03-05T11:06:41.365Z,99847.78
2023-03-05T11:11:40.255Z,99842.63
2023-03-05T11:16:51.108Z,99843.75
2023-03-05T11:22:05.329Z,99837.91
2023-03-05T11:27:23.056Z,99832.72
2023-03-05T11:32:25.572Z,99837.97
2023-03-05T11:37:30.384Z,99822.50
2023-03-05T11:42:29.148Z,99823.94
2023-03-05T11:47:48.225Z,99813.88
2023-03-05T11:52:57.295Z,99813.66
2023-03-05T11:58:25.027Z,99805.22
2023-03-05T12:03:36.017Z,99801.72
2023-03-05T12:08:38.820Z,99799.06
2023-03-05T12:13:51.000Z,99781.50
2023-03-05T12:19:03.109Z,99780.81
2023-03-05T12:24:04.964Z,99777.59
2023-03-05T12:29:03.809Z,99767.16
2023-03-05T12:34:40.708Z,99755.91
2023-03-05T12:39:42.412Z,99741.88
2023-03-05T12:44:41.328Z,99735.84
2023-03-05T12:49:40.622Z,99737.50
2023-03-05T12:54:42.141Z,99737.25
2023-03-05T12:59:46.589Z,99732.88
2023-03-05T13:04:47.332Z,99730.59
2023-03-05T13:09:57.507Z,99735.13
2023-03-05T13:15:02.629Z,99727.63
2023-03-05T13:20:06.500Z,99720.16
2023-03-05T13:25:16.208Z,99712.59
2023-03-05T13:30:28.128Z,99710.47
2023-03-05T13:35:27.067Z,99700.25
2023-03-05T13:40:31.374Z,99703.06
2023-03-05T13:45:31.730Z,99690.22
2023-03-05T13:50:36.440Z,99695.06
2023-03-05T13:55:35.532Z,99675.19
2023-03-05T14:00:38.878Z,99665.69
2023-03-05T14:05:43.000Z,99653.47
2023-03-05T14:10:43.145Z,99646.84
2023-03-05T14:15:42.131Z,99644.09
2023-03-05T14:21:02.408Z,99633.50
2023-03-05T14:26:19.392Z,99646.22
2023-03-05T14:31:18.829Z,99674.13
2023-03-05T14:36:26.822Z,99671.19
2023-03-05T14:41:41.338Z,99667.88
2023-03-05T14:46:40.814Z,99651.81
2023-03-05T14:51:43.662Z,99662.13
2023-03-05T14:56:42.399Z,99662.44
2023-03-05T15:01:41.435Z,99661.66
2023-03-05T15:06:41.805Z,99656.31
2023-03-05T15:11:40.596Z,99655.03
2023-03-05T15:16:43.266Z,99648.69
2023-03-05T15:21:42.218Z,99648.34
2023-03-05T15:26:41.076Z,99643.94
2023-03-05T15:31:40.720Z,99637.53
2023-03-05T15:36:39.538Z,99642.03
2023-03-05T15:41:38.517Z,99638.09
2023-03-05T15:46:37.254Z,99635.41
2023-03-05T15:51:36.344Z,99635.84
2023-03-05T15:56:35.316Z,99628.53
2023-03-05T16:01:34.106Z,99618.72
2023-03-05T16:06:34.240Z,99631.81
2023-03-05T16:11:37.847Z,99616.59
2023-03-05T16:16:36.828Z,99615.47
2023-03-05T16:21:36.025Z,99619.09
2023-03-05T16:26:39.046Z,99610.41
2023-03-05T16:31:40.782Z,99607.38
2023-03-05T16:36:45.984Z,99600.56
2023-03-05T16:41:44.958Z,99604.50
2023-03-05T16:46:49.288Z,99600.06
2023-03-05T16:51:48.712Z,99602.75
2023-03-05T16:56:47.540Z,99594.13
2023-03-05T17:01:46.903Z,99602.50
2023-03-05T17:06:47.656Z,99600.53
2023-03-05T17:11:46.371Z,99607.69
2023-03-05T17:16:45.794Z,99600.09
2023-03-05T17:21:45.039Z,99606.75
2023-03-05T17:26:43.910Z,99603.97
2023-03-05T17:31:43.383Z,99601.31
2023-03-05T17:36:42.216Z,99604.63
2023-03-05T17:41:41.126Z,99599.56
2023-03-05T17:46:40.090Z,99605.06
2023-03-05T17:51:38.891Z,99609.72
2023-03-05T17:56:37.644Z,99606.41
2023-03-05T18:01:36.438Z,99607.28
2023-03-05T18:06:35.234Z,99604.97
2023-03-05T18:11:33.989Z,99597.75
2023-03-05T18:16:32.778Z,99601.94
2023-03-05T18:21:31.610Z,99599.84
2023-03-05T18:26:30.409Z,99603.84
2023-03-05T18:31:29.278Z,99599.56
2023-03-05T18:36:28.157Z,99598.13
2023-03-05T18:41:28.133Z,99602.38
2023-03-05T18:46:27.303Z,99600.88
2023-03-05T18:51:28.440Z,99609.16
2023-03-05T18:56:27.286Z,99613.00
2023-03-05T19:01:26.182Z,99617.03
2023-03-05T19:06:25.200Z,99616.31
2023-03-05T19:11:24.871Z,99606.81
2023-03-05T19:16:30.334Z,99609.28
2023-03-05T19:21:30.309Z,99596.28
2023-03-05T19:26:29.207Z,99595.88
2023-03-05T19:31:28.182Z,99594.81
2023-03-05T19:36:27.014Z,99591.88
2023-03-05T19:41:27.744Z,99600.09
2023-03-05T19:46:26.762Z,99586.91
2023-03-05T19:51:27.008Z,99572.81
2023-03-05T19:56:26.172Z,99567.69
2023-03-05T20:01:27.201Z,99559.25
2023-03-05T20:06:28.132Z,99560.22
2023-03-05T20:11:28.545Z,99560.19
2023-03-05T20:16:30.950Z,99551.88
2023-03-05T20:21:33.157Z,99552.84
2023-03-05T20:26:35.334Z,99545.28
2023-03-05T20:31:37.449Z,99541.31
2023-03-05T20:36:37.036Z,99537.75
2023-03-05T20:41:38.238Z,99532.72
2023-03-05T20:46:49.770Z,99527.09
2023-03-05T20:51:50.959Z,99518.19
2023-03-05T20:56:52.439Z,99505.34
2023-03-05T21:01:51.806Z,99498.16
2023-03-05T21:06:54.528Z,99493.47
2023-03-05T21:11:53.487Z,99489.63
2023-03-05T21:16:53.098Z,99496.13
2023-03-05T21:21:52.121Z,99486.66
2023-03-05T21:26:51.055Z,99481.72
2023-03-05T21:31:50.254Z,99469.94
2023-03-05T21:36:49.277Z,99466.50
2023-03-05T21:41:48.574Z,99467.94
2023-03-05T21:46:47.862Z,99454.56
2023-03-05T21:52:03.342Z,99446.06
2023-03-05T21:57:02.775Z,99432.00
2023-03-05T22:02:02.196Z,99442.09
2023-03-05T22:07:01.033Z,99434.88
2023-03-05T22:11:59.888Z,99438.78
2023-03-05T22:17:03.417Z,99429.06
2023-03-05T22:22:02.215Z,99425.66
2023-03-05T22:27:02.149Z,99424.09
2023-03-05T22:32:02.404Z,99420.16
2023-03-05T22:37:01.339Z,99410.59
2023-03-05T22:42:00.111Z,99405.47
2023-03-05T22:46:59.216Z,99405.72
2023-03-05T22:51:58.020Z,99397.53
2023-03-05T22:56:57.239Z,99402.22
2023-03-05T23:01:56.008Z,99393.44
2023-03-05T23:06:55.795Z,99399.97
2023-03-05T23:11:54.681Z,99395.00
2023-03-05T23:16:53.454Z,99398.19
2023-03-05T23:21:52.225Z,99398.56
2023-03-05T23:26:51.109Z,99387.19
2023-03-05T23:31:49.783Z,99395.69
2023-03-05T23:36:48.901Z,99388.28
2023-03-05T23:41:47.679Z,99384.72
2023-03-05T23:46:46.470Z,99381.91
2023-03-05T23:51:45.462Z,99389.25
2023-03-05T23:56:44.216Z,99383.03
